x

8454049 - Quonset Point, Ri (qptr1) Weather Station

1:30 - Wed 17th Sep 2014 All times are EDT. -4 hours from GMT.

  • Wind
    3mph, 5mph gusts
  • Sea Temp 69°f
  • Air Temp 59°f
  • Sea Pressure 1015.3mb
  • 8454049 - Quonset Point, Ri
  • 8454049 - Quonset Point, Ri

More Historic Weather Station data

Upgrade to MSW Pro to gain access to the past 30 days of data for over 8000 Wavebouys and Weather Stations around the globe.

Join Pro

Comparision Forecast

View Surf forecast
   
mer. 09/17 1:30 3 5 mph 1015.3mb 69f 59f
1:24 5 6 mph 1015.3mb 69f 59f
1:18 5
mph
1015.4mb 69f 60f
1:12 3 5 mph 1015.3mb 69f 60f
1:06 5
mph
1015.2mb 69f 60f
1:00 3 5 mph 1015.3mb 69f 60f
12:54 3 5 mph 1015.3mb 69f 60f
12:48 5 6 mph 1015.3mb 69f 59f
12:42 5 7 mph 1015.2mb 69f 60f
12:36 7 9 mph 1015.2mb 69f 60f
12:30 7 8 mph 1015.2mb 69f 60f
12:24 6 7 mph 1015.3mb 69f 60f
12:18 6 7 mph 1015.3mb 69f 60f
12:12 6 7 mph 1015.3mb 69f 60f
12:06 6 7 mph 1015.3mb 69f 60f
12:00 5 6 mph 1015.3mb 69f 60f
mar. 09/16 11:54 5 6 mph 1015.3mb 69f 60f
11:48 5 6 mph 1015.3mb 69f 60f
11:42 5 6 mph 1015.3mb 69f 60f
11:36 6 7 mph 1015.3mb 69f 60f
11:30 6 8 mph 1015.2mb 69f 60f
11:24 6 7 mph 1015.1mb 69f 60f
11:18 6 7 mph 1015.1mb 69f 60f
11:12 6 7 mph 1015mb 69f 60f
11:06 6 7 mph 1015mb 69f 61f
11:00 6 7 mph 1014.9mb 69f 60f
10:54 6 7 mph 1015mb 69f 61f
10:48 6 8 mph 1015mb 69f 61f
10:42 7 9 mph 1015mb 69f 61f
10:30 7 8 mph 1015mb 69f 61f
10:18 7 9 mph 1015mb 69f 62f
10:12 7
mph
1015mb 69f 62f
10:06 5
mph
1014.9mb 69f 63f
10:00 5 7 mph 1014.9mb 69f 62f
9:54 5 6 mph 1014.9mb 69f 63f
9:48 6 7 mph 1014.9mb 69f 63f
9:42 3 5 mph 1014.9mb 69f 63f
9:36 3 5 mph 1014.8mb 69f 62f
9:30 3 5 mph 1014.8mb 69f 63f
9:24 5 6 mph 1014.8mb 69f 63f
9:18 6
mph
1014.8mb 69f 63f
9:12 5 7 mph 1014.8mb 69f 63f
9:06 6
mph
1014.8mb 69f 63f
9:00 5 6 mph 1014.8mb 69f 63f
8:54 5 6 mph 1014.9mb 69f 63f
8:48 6 7 mph 1014.9mb 69f 63f
8:42 6
mph
1014.9mb 69f 63f
8:36 3 5 mph 1014.9mb 69f 63f
8:30 5 7 mph 1014.8mb 69f 63f
8:24 6 7 mph 1014.8mb 69f 63f
8:18 6
mph
1014.8mb 69f 63f
8:12 5 6 mph 1014.8mb 69f 63f
8:06 6 7 mph 1014.8mb 69f 63f
8:00 6 7 mph 1014.7mb 69f 64f
7:54 6 7 mph 1014.6mb 69f 64f
7:48 5 7 mph 1014.5mb 69f 64f
7:42 5 7 mph 1014.4mb 69f 64f
7:36 5 7 mph 1014.4mb 69f 64f
7:30 5 6 mph 1014.3mb 69f 64f
7:24 5 6 mph 1014.3mb 69f 64f
7:18 5 6 mph 1014.3mb 69f 64f
7:12 5 6 mph 1014.2mb 69f 64f
7:06 5 7 mph 1014.2mb 69f 64f
7:00 5 6 mph 1014.2mb 69f 64f
6:54 6
mph
1014.2mb 69f 64f
6:48 3 7 mph 1014.1mb 69f 64f
6:42 6 8 mph 1014.1mb 69f 64f
6:36 8 9 mph 1014.1mb 69f 64f
6:30 8 10 mph 1014.1mb 69f 64f
6:24 8 10 mph 1014.1mb 69f 64f
6:18 10 13 mph 1014.1mb 69f 64f
6:12 10 11 mph 1014.1mb 69f 65f
6:06 10 13 mph 1014.1mb 69f 65f
6:00 10 11 mph 1014.2mb 69f 65f
5:54 10 11 mph 1014.2mb 69f 65f
5:48 10 11 mph 1014.2mb 69f 65f
5:42 9 13 mph 1014.2mb 69f 65f
5:36 8 11 mph 1014.2mb 69f 65f
5:30 7 10 mph 1014.1mb 69f 65f
5:24 8 9 mph 1014.1mb 69f 65f
5:18 7 10 mph 1014mb 69f 65f
5:12 9 11 mph 1014mb 69f 65f
5:06 11 13 mph 1014mb 69f 65f
5:00 9 14 mph 1014mb 69f 65f
4:54 11 13 mph 1014mb 69f 65f
4:48 11 14 mph 1013.9mb 69f 65f
4:42 11 15 mph 1013.9mb 69f 65f
4:36 11 14 mph 1013.9mb 69f 66f
4:30 11 14 mph 1013.9mb 69f 66f
4:24 10 13 mph 1013.9mb 69f 66f
4:18 10 14 mph 1013.9mb 69f 66f
4:12 9 11 mph 1013.9mb 69f 66f
4:06 9 13 mph 1013.9mb 69f 66f
4:00 10 14 mph 1013.8mb 69f 67f
3:54 13 15 mph 1013.7mb 69f 66f
3:48 13 15 mph 1013.7mb 69f 67f
3:42 9 13 mph 1013.7mb 69f 67f
3:36 13 14 mph 1013.7mb 69f 67f
3:30 13 15 mph 1013.7mb 69f 66f
3:24 13 14 mph 1013.7mb 69f 67f
3:18 11 13 mph 1013.8mb 69f 67f
3:12 10 14 mph 1013.8mb 69f 66f
3:06 11 15 mph 1013.8mb 69f 66f
3:00 13 16 mph 1013.8mb 69f 66f
2:54 11 13 mph 1013.9mb 69f 65f
2:48 11 13 mph 1013.9mb 69f 65f
2:42 11 13 mph 1013.9mb 69f 65f
2:36 11 13 mph 1014mb 69f 65f
2:30 11 13 mph 1014mb 69f 65f
2:24 10 13 mph 1014.1mb 69f 66f
2:18 10 11 mph 1014.1mb 69f 65f
2:12 9 11 mph 1014.1mb 69f 65f
2:06 11 13 mph 1014.1mb 69f 66f
2:00 10 13 mph 1014.2mb 69f 66f
1:54 10 13 mph 1014.2mb 69f 66f
1:48 11 14 mph 1014.3mb 69f 65f
1:42 14 16 mph 1014.2mb 69f 65f
1:36 14 15 mph 1014.1mb 69f 65f
1:30 13 14 mph 1014.2mb 69f 65f
1:24 11 13 mph 1014.3mb 69f 65f
1:18 10 13 mph 1014.4mb 69f 65f
1:12 10 13 mph 1014.5mb 69f 65f
1:06 10 11 mph 1014.5mb 69f 65f
1:00 10 11 mph 1014.6mb 69f 65f
11:42 8 9 mph 1015.5mb - 65f
11:36 8 9 mph 1015.5mb - 65f
11:30 8 9 mph 1015.5mb 69f 65f
11:24 6 7 mph 1015.5mb 69f 65f
11:18 7 9 mph 1015.5mb 69f 65f
11:12 8 10 mph 1015.6mb 69f 65f
11:06 6 8 mph 1015.6mb 69f 65f
11:00 6 7 mph 1015.7mb 69f 65f
10:54 6 9 mph 1015.8mb 69f 65f
10:48 6 8 mph 1015.8mb 69f 65f
10:42 6 8 mph 1015.8mb 69f 66f
10:30 3 6 mph 1015.9mb - -
10:24  -  mph - 69f -
10:12  -  mph 1016mb - -
9:54  -  mph 1016.1mb - -
9:48  -  mph - - 65f
9:42  -  mph - - 65f
9:36  -  mph - - 65f
9:30  -  mph - - 64f
9:24  -  mph - - 64f
9:18  -  mph - - 63f
9:12  -  mph - - 64f
9:06  -  mph - - 63f
9:00 2
mph
- - 62f
8:54  -  2 mph - - 62f
8:48 1 2 mph 1016.3mb - 62f
8:42 2 3 mph 1016.1mb - 62f
8:36 2
mph
1016mb - 62f
8:30 2
mph
- - 61f
8:24 2 3 mph - - 60f
8:18 2
mph
1016.2mb - 60f
8:12 2
mph
1016.3mb - 60f
8:06 2
mph
1016.4mb - 59f
8:00 2
mph
1016.5mb 69f 59f
7:54 2 3 mph 1016.6mb 69f 59f
7:48 2
mph
1016.7mb 69f 58f
7:42 2
mph
1016.7mb 69f 58f
7:36 2
mph
1016.7mb 69f 58f
7:30  -  mph 1016.7mb 69f 58f
7:24  -  mph 1016.7mb 69f 58f
7:18 1
mph
1016.7mb 69f 58f
7:12 1
mph
1016.8mb 69f 57f
7:06 1 2 mph 1016.9mb 69f 58f
7:00 1 2 mph 1017mb 69f 58f
6:54  -  1 mph 1017mb 69f 58f
6:48  -  1 mph 1017.1mb 69f 58f
6:42 1 2 mph 1017.1mb 69f 57f
6:36 2
mph
1017.1mb 69f 57f
6:30 2
mph
- 69f 57f
6:24 2
mph
- 69f 57f
6:18 2
mph
1017mb 69f 57f
6:12 2
mph
1017mb 69f 57f
6:06 2
mph
1017mb 69f 57f
6:00 1 2 mph 1017mb 69f 57f
5:54  -  1 mph 1017.1mb 69f 57f
5:48  -  1 mph 1017.1mb 69f 56f
5:42 1 2 mph 1017.1mb 69f 56f
5:36 2
mph
1017.2mb 69f 56f
5:30 3 5 mph 1017.2mb 69f 55f
5:24 3 5 mph 1017.3mb 69f 56f
5:18 5
mph
1017.3mb 69f 55f
5:12 3 5 mph 1017.3mb 69f 55f
5:06 3 5 mph 1017.1mb 69f 55f
5:00 3 5 mph 1017.2mb 69f 55f
4:54 3 6 mph 1017.1mb 69f 55f
4:48 3 5 mph 1017.1mb 69f 55f
4:42 3
mph
1017.1mb 69f 55f
4:36 2 3 mph 1016.9mb 69f 55f
4:30 3 5 mph 1017mb 69f 55f
4:24 3 5 mph 1017mb 69f 55f
4:18 2 3 mph 1017mb 69f 55f
4:12 2 3 mph 1017mb 69f 56f
4:06 1 2 mph 1016.9mb 69f 56f
4:00 1 2 mph 1017mb 69f 55f
3:54 1 2 mph 1017.1mb 69f 56f
3:48 1 2 mph 1017.2mb 69f 55f
3:42 1 3 mph 1017.2mb 69f 55f
3:36 2 3 mph 1017.3mb 69f 55f
3:30 3
mph
1017.3mb 69f 55f
3:24 3
mph
1017.3mb 69f 55f
3:18  -  mph 1017.4mb - -
3:12 3 5 mph 1017.4mb - 55f
3:06 3
mph
1017.5mb - 55f
3:00 2
mph
1017.6mb - 55f
2:54  -  mph 1017.6mb - 55f
2:48 2 3 mph 1017.7mb - 55f
2:42  -  mph - - 55f
2:30  -  mph - - 55f
2:24  -  mph - - 55f
2:18  -  mph - - 55f
2:12  -  mph - - 55f
2:06  -  mph - - 55f
2:00  -  mph - - 55f
1:54  -  mph - - 55f
1:48  -  mph - 69f 55f
1:42  -  mph - 69f 55f
1:36  -  mph - 69f 55f
1:30  -  mph 1018.4mb 69f 55f
1:24 6
mph
1018.5mb 69f 55f
1:18  -  mph 1018.5mb 69f 55f
1:12 5 6 mph 1018.5mb 69f 55f
1:06 5 6 mph 1018.6mb 69f 55f
1:00  -  mph 1018.6mb 69f -
12:48  -  mph 1018.7mb 69f 56f
12:42 5 6 mph 1018.6mb 69f 56f
12:36 5 7 mph 1018.6mb 69f 56f
12:30  -  mph - 69f -
12:24  -  mph - 69f -
12:18  -  mph - - 56f
12:12  -  mph - - 56f
12:06  -  mph - - 56f
12:00  -  mph 1018.5mb - -
lun. 09/15 11:54  -  mph 1018.7mb - -
11:48  -  mph 1018.8mb - -
11:42  -  mph 1018.8mb - 58f
11:36  -  mph 1018.6mb - 59f
11:30 5 6 mph 1018.6mb - 58f
11:24 5 6 mph 1018.6mb - 58f
11:18  -  mph 1018.6mb 69f 57f
11:12  -  mph 1018.7mb 69f 57f
11:06  -  mph 1018.8mb 69f 58f
11:00 7 8 mph - - 58f
10:54 1 3 mph - - 58f
10:48  -  mph 1018.7mb - -
10:42  -  mph 1018.9mb - -
10:36  -  mph 1019.1mb - -
10:30  -  mph - 69f 58f
10:24  -  mph - 69f 58f
10:18 3 5 mph - 69f 58f
10:12 3
mph
- 69f 58f
10:06 2 3 mph - 69f 58f
10:00 1 3 mph 1019.2mb 69f 59f
9:54 3 7 mph 1019.3mb 69f 59f
9:48 6 8 mph 1019.4mb 69f 59f
9:42 5 6 mph 1019.4mb 69f 59f
9:36 5 7 mph 1019.4mb 69f 60f
9:30 6 7 mph 1019.3mb 69f 60f
9:24 6 7 mph 1019.4mb 69f 60f
9:18 7 8 mph 1019.5mb 70f 60f
9:12 7 8 mph 1019.5mb 70f 60f
9:06 7 9 mph 1019.6mb 70f 60f
9:00 7 9 mph 1019.6mb 70f 60f
8:54 8 9 mph 1019.6mb 70f 61f
8:48 8 9 mph 1019.7mb 70f 60f
8:42 9 10 mph 1019.7mb 70f 60f
8:36 9 10 mph 1019.8mb 70f 61f
8:30 9 10 mph 1019.6mb 70f 61f
8:24 9 10 mph 1019.5mb 70f 61f
8:18 9 10 mph 1019.6mb 70f 61f
8:12 8 10 mph 1019.6mb 70f 61f
8:06 9 11 mph 1019.6mb 70f 62f
8:00 9 10 mph 1019.5mb 70f 62f
7:54 9 10 mph 1019.3mb 70f 62f
7:48 8 10 mph 1019.3mb 70f 63f
7:42 8 10 mph 1019.2mb 70f 63f
7:36 7 9 mph 1019.5mb 70f 63f
7:30 7 10 mph 1019.7mb 70f 63f
7:24 9 13 mph 1019.6mb 70f 63f
7:18 9 13 mph 1019.5mb 69f 64f
7:12 10 13 mph 1019.4mb 69f 64f
7:06 13 14 mph 1019.3mb 69f 64f
7:00 10 13 mph 1019.2mb 69f 64f
6:54 13
mph
1018.9mb 69f 64f
6:48 10 13 mph 1019.1mb 70f 64f
6:42 10 13 mph 1019.2mb 70f 64f
6:36 11 13 mph 1019.2mb 70f 64f
6:30 10 14 mph 1019.2mb 70f 64f
6:24 9 11 mph 1019.3mb 70f 64f
6:18 9 13 mph 1019.5mb 70f 64f
6:12 9 11 mph 1019.5mb 70f 64f
6:06 9 11 mph 1019.8mb 70f 64f
6:00 11 18 mph 1019.7mb 70f 64f
5:54 13 18 mph 1019.7mb 70f 64f
5:48 10 14 mph 1019.7mb 70f 64f
5:42 11 14 mph 1019.7mb 70f 64f
5:36 11 14 mph 1019.6mb 70f 64f
5:30 13 15 mph 1019.6mb 70f 64f
5:24 14 15 mph 1019.5mb 70f 64f
5:18 11 15 mph 1019.5mb 70f 64f
5:12 13 15 mph 1019.5mb 70f 64f
5:06 11 14 mph 1019.5mb 70f 64f
5:00 14 15 mph 1019.6mb 70f 64f
4:54 13 15 mph 1019.6mb 70f 64f
4:48 10 14 mph 1019.7mb 70f 64f
4:42 11 14 mph 1019.6mb 70f 64f
4:36 10 14 mph 1019.5mb 70f 63f
4:30 13 15 mph 1019.5mb 70f 63f
4:24 13 15 mph 1019.5mb 70f 63f
4:18 13 15 mph 1019.6mb 70f 64f
4:12 10 13 mph 1019.7mb 70f 64f
4:06 10 14 mph 1019.8mb 70f 63f
4:00 10 14 mph 1019.9mb 70f 63f
3:54 10 13 mph 1019.8mb 69f 63f
3:48 13 14 mph 1019.7mb 69f 63f
3:42 11 14 mph 1019.7mb 69f 63f
3:36 10 11 mph 1019.8mb 69f 64f
3:30 10 11 mph 1019.9mb 69f 63f
3:24 10 13 mph 1019.9mb 69f 63f
3:18 10 13 mph 1019.9mb 69f 63f
3:12 13 14 mph 1020.1mb 70f 63f
3:06 11 14 mph 1020.1mb 70f 63f
3:00 11 14 mph 1020.1mb 70f 63f
2:54 13 16 mph 1020.1mb 70f 63f
2:42 10 14 mph 1020.2mb 70f 63f
2:36 9 11 mph 1020.2mb 70f 63f
2:30 7 10 mph 1020.3mb 70f 63f
2:24 9 10 mph 1020.4mb 70f 63f
2:18 6 8 mph 1020.5mb 69f 63f
2:12 6 7 mph 1020.7mb 69f 63f
2:06 5 7 mph 1020.8mb 69f 63f
2:00 2 5 mph 1020.8mb 69f 64f
1:54 3 7 mph 1020.9mb 69f 63f
1:48 5 6 mph 1020.9mb 69f 63f
1:42 3 6 mph 1020.9mb 69f 63f
1:36 5 7 mph 1020.8mb 69f 63f
1:30 5 7 mph 1020.8mb 69f 63f
1:24 6
mph
1020.9mb 69f 63f
1:18 6 7 mph 1021mb 69f 62f
1:12 6 7 mph 1021.1mb 69f 62f
1:06 6 7 mph 1021.2mb 69f 62f
1:00 5 7 mph 1021.3mb 69f 62f
12:54 5 7 mph 1021.3mb 69f 62f
12:48 6 7 mph 1021.5mb 69f 62f
12:42 3 6 mph 1021.5mb 69f 62f
12:36 5 7 mph 1021.6mb 69f 62f
12:30 3 7 mph 1021.7mb 69f 62f
12:24 3 6 mph 1021.7mb 69f 62f
12:18 5 7 mph 1021.9mb 69f 61f
12:12 6 7 mph 1021.7mb 69f 61f
12:00 7 8 mph 1021.8mb 69f 61f
11:54 6 9 mph 1021.9mb 69f 61f
11:48 7 8 mph 1022mb 69f 60f
11:42 6 8 mph 1022.1mb 69f 61f
11:36 8 10 mph 1022.2mb 69f 60f
11:30 7 9 mph 1022.2mb 69f 60f
11:24 7 9 mph 1022.2mb 69f 60f
11:18 6 9 mph 1022.3mb 69f 60f
11:12 8 9 mph 1022.4mb 69f 60f
11:06 7 10 mph 1022.4mb 69f 60f
11:00 7 9 mph 1022.5mb 69f 60f
10:54 8 9 mph 1022.6mb 69f 59f
10:48 8 9 mph 1022.6mb 69f 59f
10:42 8 10 mph 1022.6mb 69f 59f
10:36 8 9 mph 1022.7mb 69f 58f
10:30 8 10 mph 1022.7mb 69f 58f
10:24 7 9 mph 1022.8mb 69f 58f
10:18 8 10 mph 1022.9mb 69f 58f
10:12 8 9 mph 1023mb 69f 57f
10:06 7 9 mph 1023.1mb 69f 57f
10:00 6 9 mph 1023.1mb 69f 57f
9:54 9 10 mph 1023.1mb 69f 56f
9:48 7 9 mph 1023.1mb 69f 56f
9:42 7 9 mph 1023.1mb 69f 56f
9:36 7 10 mph 1023.1mb 69f 56f
9:30 7 9 mph 1023.2mb 69f 56f
9:24 6 9 mph 1023.2mb 69f 55f
9:18 8 10 mph 1023.2mb 69f 55f
9:12 9 10 mph 1023.2mb 69f 55f
9:06 8 10 mph 1023.2mb 69f 55f
9:00 7 9 mph 1023.2mb 69f 54f
8:54 9 10 mph 1023.2mb 69f 54f
8:48 8 10 mph 1023.3mb 69f 54f
8:42 7 10 mph 1023.3mb 69f 54f
8:36 7 10 mph 1023.3mb 69f 53f
8:30 8 10 mph 1023.4mb 69f 53f
8:24 8 11 mph 1023.4mb 69f 53f
8:18 8 10 mph 1023.3mb 69f 53f
8:12 7 9 mph 1023.3mb 69f 53f
8:06 8 11 mph 1023.3mb 69f 52f
8:00 9 13 mph 1023.3mb 69f 52f
7:54 10 13 mph 1023.3mb 69f 52f
7:48 10 14 mph 1023.4mb 69f 51f
7:42 10 13 mph 1023.4mb 69f 51f
7:36 9 11 mph 1023.4mb 69f 51f
7:30 9 13 mph 1023.3mb 69f 51f
7:24 9 10 mph 1023.3mb 69f 51f
7:18 9 10 mph 1023.3mb 69f 51f
7:12 7 10 mph 1023.3mb 69f 51f
7:06 8 10 mph 1023.3mb 69f 50f
7:00 7 9 mph 1023.3mb 69f 50f
6:54 7 9 mph 1023.3mb 69f 50f
6:48 7 9 mph 1023.3mb 69f 50f
6:42 8 10 mph 1023.4mb 69f 51f
6:36 8 10 mph 1023.3mb 69f 50f
6:30 9 10 mph 1023.3mb 69f 51f
6:24 8 9 mph 1023.2mb 69f 51f
6:18 8 10 mph 1023.2mb 69f 51f
6:12 8 11 mph 1023.2mb 69f 51f
6:06 8 10 mph 1023.2mb 69f 51f
6:00 9 11 mph 1023.2mb 69f 51f
5:54 9 10 mph 1023mb 69f 51f
5:48 8 10 mph 1023mb 69f 51f
5:42 7 8 mph 1022.8mb 69f 50f
5:36 7 13 mph 1022.8mb 69f 50f
5:30 7 9 mph 1022.7mb 69f 50f
5:24 8 9 mph 1022.7mb 69f 50f
5:18 7 9 mph 1022.7mb 70f 50f
5:12 7 10 mph 1022.6mb 70f 50f
5:06 7 9 mph 1022.6mb 70f 50f
5:00 6 8 mph 1022.4mb 70f 50f
4:54 7 8 mph 1022.4mb 70f 51f
4:48 6 8 mph 1022.3mb 70f 51f
4:42 6 7 mph 1022.4mb 70f 51f
4:36 5 8 mph 1022.3mb 70f 51f
4:30 7 8 mph 1022.4mb 70f 52f
4:24 7 8 mph 1022.3mb 70f 52f
4:18 6 9 mph 1022.3mb 70f 52f
4:12 7 9 mph 1022.3mb 70f 52f
4:06 8 10 mph 1022.2mb 70f 53f
4:00 8 10 mph 1022.2mb 70f 53f
3:54 9 11 mph 1022.2mb 70f 53f
3:48 10 13 mph 1022mb 70f 53f
3:42 10 13 mph 1022mb 70f 54f
3:36 9 14 mph 1021.9mb 70f 54f
3:30 10 11 mph 1021.9mb 70f 54f
3:24 9 11 mph 1021.9mb 70f 54f
3:18 9 11 mph 1021.9mb 70f 54f
3:12 10 11 mph 1021.9mb 70f 54f
3:06 10 11 mph 1022mb 70f 54f
3:00 9 11 mph 1022mb 70f 55f
2:54 9 11 mph 1022mb 70f 55f
2:48 9 11 mph 1022.1mb 70f 55f
2:42 9 11 mph 1022.1mb 70f 54f
2:36 9 11 mph 1022.1mb 70f 55f
2:30 9 13 mph 1022.1mb 70f 55f
2:24 10 13 mph 1022.1mb 70f 55f
2:18 10 13 mph 1022mb 70f 55f
2:12 8 11 mph 1022.1mb 70f 54f
2:06 9 13 mph 1022.1mb 70f 54f
2:00 10 13 mph 1022mb 70f 54f
1:54 11 13 mph 1022mb 70f 54f
1:48 10 13 mph 1022mb 70f 54f
1:42 9 11 mph 1021.9mb 70f 55f
1:36 9 13 mph 1021.9mb 70f 55f
1:30 10 13 mph 1022mb 70f 55f
1:24 10 13 mph 1021.9mb 70f 55f
1:18 9 11 mph 1022mb 70f 55f
1:12 9 11 mph 1021.9mb 70f 55f
1:06 9 11 mph 1021.9mb 70f 55f
1:00 9 13 mph 1021.9mb 70f 55f
12:54 10 13 mph 1021.8mb 70f 55f
12:48 10 13 mph 1021.7mb 70f 55f
12:42 9 11 mph 1021.8mb 70f 55f
12:36 9 10 mph 1021.8mb 70f 55f
12:30 7 9 mph 1021.8mb 70f 55f
12:24 7 9 mph 1021.8mb 70f 55f
12:18 7 8 mph 1021.9mb 70f 55f
12:12 7 8 mph 1021.8mb 70f 55f
12:06 7 8 mph 1021.8mb 70f 56f
12:00 6 7 mph 1021.9mb 70f 56f
dim. 09/14 11:54 6 8 mph 1021.8mb 70f 57f
11:48 6 8 mph 1021.8mb 70f 57f
11:42 7 8 mph 1021.6mb 70f 57f
11:36 6 8 mph 1021.7mb 70f 57f
11:30 5 6 mph 1021.7mb 70f 58f
11:24 5 6 mph 1021.7mb 70f 58f
11:18 5 7 mph 1021.8mb 70f 60f
11:12 6 8 mph 1021.8mb 70f 61f
11:06 6 7 mph 1021.7mb 70f 61f
11:00 6 8 mph 1021.7mb 70f 61f
10:54 7 8 mph 1021.7mb 70f 61f
10:48 7 9 mph 1021.6mb 70f 61f
10:42 8 9 mph 1021.6mb 70f 61f
10:36 7 9 mph 1021.6mb 70f 61f
10:30 8 9 mph 1021.7mb 70f 61f
10:24 7 9 mph 1021.7mb 70f 61f
10:18 7 8 mph 1021.6mb 70f 61f
10:12 6 8 mph 1021.6mb 70f 62f
10:06 7 9 mph 1021.5mb 70f 60f
10:00 7 9 mph 1021.5mb 70f 59f
9:48 7 8 mph 1021.7mb 70f 60f
9:42 7 8 mph 1021.7mb 70f 60f
9:36 7 8 mph 1021.8mb 70f 59f
9:30 7 8 mph 1021.9mb 70f 59f
9:24 8 9 mph 1022mb 70f 60f
9:18 6 8 mph 1022mb 70f 60f
9:12 7 9 mph 1022mb 70f 60f
9:06 7 9 mph 1022mb 70f 60f
9:00 7 9 mph 1021.9mb 70f 61f
8:54 7 8 mph 1022mb 70f 61f
8:48 7 9 mph 1021.9mb 70f 61f
8:42 7 8 mph 1021.9mb 70f 61f
8:36 6 9 mph 1021.9mb 70f 61f
8:30 8
mph
1022mb 70f 62f
8:24 3 5 mph 1021.9mb 70f 63f
8:18 3 5 mph 1021.8mb 70f 63f
8:06 5 6 mph 1021.9mb 70f 63f
8:00 5 6 mph 1021.8mb 70f 63f
7:54 3 5 mph 1021.7mb 70f 64f
7:48 2 3 mph 1021.6mb 70f 63f
7:42 2 5 mph 1021.6mb 70f 64f
7:36 3 5 mph 1021.6mb 70f 64f
7:30 3 5 mph 1021.6mb 70f 64f
7:24 2 5 mph 1021.6mb 70f 64f
7:18 5 6 mph 1021.6mb 70f 64f
7:06 6 7 mph 1021.4mb 70f 64f
6:54 7 8 mph 1021.5mb 70f 64f
6:48 7 9 mph 1021.4mb 70f 64f
6:42 8 10 mph 1021.4mb 70f 64f
6:36 9 11 mph 1021.4mb 70f 64f
6:30 9 10 mph 1021.5mb 70f 65f
6:24 8 11 mph 1021.4mb 70f 65f
6:18 9 11 mph 1021.4mb 70f 65f
6:12 10 13 mph 1021.3mb 70f 65f
6:06 9 13 mph 1021.3mb 70f 65f
6:00 13 15 mph 1021.4mb 70f 65f
5:54 13 15 mph 1021.3mb 70f 65f
5:48 11 14 mph 1021.3mb 70f 65f
5:42 11 14 mph 1021.3mb 70f 64f
5:36 11 14 mph 1021.2mb 70f 64f
5:30 11 14 mph 1021.3mb 70f 65f
5:24 11 14 mph 1021.2mb 70f 65f
5:18 11 13 mph 1021.2mb 70f 64f
5:12 11 14 mph 1021.3mb 70f 64f
5:06 13 14 mph 1021.3mb 70f 64f
5:00 13 14 mph 1021.3mb 70f 65f
4:54 11 15 mph 1021.3mb 70f 65f
4:48 14 15 mph 1021.2mb 70f 64f
4:42 11 13 mph 1021.3mb 70f 64f
4:36 11 13 mph 1021.3mb 70f 65f
4:30 11 14 mph 1021.2mb 70f 65f
4:24 13 15 mph 1021.2mb 70f 65f
4:18 13 14 mph 1021.1mb 70f 65f
4:12 10 13 mph 1021.2mb 70f 65f
4:06 8 9 mph 1021.2mb 70f 65f
4:00 7 8 mph 1021.2mb 70f 66f
3:54 6 7 mph 1021.1mb 70f 66f
3:48 7
mph
1021.1mb 70f 66f
3:42 6 8 mph 1021mb 70f 65f
3:36 6 7 mph 1021.1mb 70f 65f
3:30 6 7 mph 1021.1mb 70f 65f
3:24 5 7 mph 1021.1mb 70f 65f
3:18 6
mph
1021mb 70f 65f
3:12 6
mph
1021.1mb 70f 65f
3:06 5 7 mph 1021.2mb 70f 65f
3:00 6 7 mph 1021.2mb 70f 65f
2:54 5 7 mph 1021.2mb 70f 65f
2:48 5 6 mph 1021.3mb 70f 65f
2:42 6 7 mph 1021.3mb 70f 65f
2:36 7 8 mph 1021.3mb 70f 64f
2:30 7 8 mph 1021.3mb 70f 64f
2:24 6 8 mph 1021.4mb 70f 64f
2:18 6 9 mph 1021.4mb 70f 64f
2:12 7 9 mph 1021.5mb 70f 64f
2:06 7 10 mph 1021.5mb 70f 64f
2:00 8 9 mph 1021.5mb 70f 64f
1:54 7 8 mph 1021.6mb 70f 64f
1:48 8 9 mph 1021.8mb 70f 63f
1:42 8 9 mph 1021.8mb 70f 63f
1:36 9 13 mph 1021.7mb 70f 63f
1:30 10 11 mph 1021.7mb 70f 63f
1:24 8 11 mph 1021.8mb 70f 64f
1:18 8 10 mph 1021.8mb 70f 63f
1:12 1 3 mph 1022mb 70f 64f
1:06 2 9 mph 1022mb 70f 63f
1:00 7 9 mph 1022mb 70f 63f
12:48 9 15 mph 1021.9mb 70f 63f
12:42 10 14 mph 1021.9mb 70f 62f
12:36 13 15 mph 1021.8mb 70f 63f
12:30 13 15 mph 1021.9mb 70f 62f
12:24 11 15 mph 1022mb 70f 62f
12:18 11 14 mph 1022mb 70f 62f
12:12 10 15 mph 1022mb 70f 61f
12:06 10 17 mph 1022mb 70f 62f
12:00 8 14 mph 1022.1mb 70f 61f
11:54 14 15 mph 1022.2mb 70f 61f
11:48 10 15 mph 1022.1mb 70f 61f
11:42 13 18 mph 1022.2mb 70f 61f
11:36 10 14 mph 1022.2mb 70f 60f
11:30 13 15 mph 1022.4mb 70f 60f
11:24 14 17 mph 1022.4mb 70f 60f
11:18 11 15 mph 1022.5mb 70f 60f
11:12 14 17 mph 1022.5mb 70f 60f
11:06 14 16 mph 1022.6mb 70f 59f
11:00 15 18 mph 1022.6mb 70f 59f
10:54 13 18 mph 1022.8mb 70f 59f
10:48 14 18 mph 1022.8mb 70f 59f
10:42 14 20 mph 1022.8mb 70f 59f
10:36 16 18 mph 1022.8mb 70f 58f
10:30 14 18 mph 1022.7mb 70f 58f
10:24 14 21 mph 1022.7mb 70f 58f
10:18 14 20 mph 1022.6mb 70f 58f
10:12 16 20 mph 1022.6mb 70f 58f
10:06 16 21 mph 1022.7mb 70f 58f
10:00 16 20 mph 1022.7mb 70f 58f
9:54 17 22 mph 1022.7mb 70f 58f
9:48 18 22 mph 1022.8mb 70f 57f
9:42 17 21 mph 1022.7mb 70f 57f
9:36 18 22 mph 1022.8mb 70f 57f
9:30 16 21 mph 1022.8mb 70f 57f
9:24 16 20 mph 1022.8mb 70f 57f
9:18 15 22 mph 1022.9mb 70f 57f
9:12 13 18 mph 1022.9mb 70f 57f
9:06 14 18 mph 1022.9mb 70f 56f
9:00 17 21 mph 1022.8mb 70f 56f
8:54 14 22 mph 1022.7mb 70f 56f
8:48 17 22 mph 1022.6mb 70f 56f
8:42 16 23 mph 1022.7mb 70f 55f
8:36 16 22 mph 1022.7mb 70f 56f
8:30 17 23 mph 1022.8mb 70f 55f
8:24 15 20 mph 1022.7mb 70f 55f
8:18 14 23 mph 1022.7mb 70f 55f
8:12 15 18 mph 1022.6mb 70f 55f
8:06 15 20 mph 1022.6mb 70f 55f
8:00 13 16 mph 1022.5mb 70f 55f
7:54 14 18 mph 1022.5mb 70f 55f
7:48 13 16 mph 1022.4mb 70f 55f
7:42 13 17 mph 1022.4mb 70f 55f
7:36 13 16 mph 1022.4mb 70f 54f
7:30 8 14 mph 1022.4mb 70f 54f
7:24 10 15 mph 1022.3mb 70f 54f
7:18 10 15 mph 1022.3mb 70f 54f
7:12 9 16 mph 1022.2mb 70f 54f
7:06 13 16 mph 1022mb 70f 53f
7:00 11 16 mph 1022mb 70f 54f
6:54 11 16 mph 1021.9mb 70f 54f
6:48 13 15 mph 1021.8mb 70f 54f
6:42 11 15 mph 1021.7mb 70f 54f
6:36 10 14 mph 1021.6mb 70f 53f
6:30 9 15 mph 1021.5mb 70f 54f
6:24 10 13 mph 1021.4mb 70f 53f
6:18 10 14 mph 1021.4mb 70f 53f
6:12 10 14 mph 1021.3mb 70f 53f
6:06 9 11 mph 1021.2mb 70f 53f
6:00 8 14 mph 1021.1mb 70f 54f
5:54 9 14 mph 1021mb 70f 54f
5:48 9 14 mph 1020.9mb 70f 54f
5:42 9 15 mph 1020.8mb 70f 54f
5:36 10 13 mph 1020.8mb 70f 54f
5:30 9 14 mph 1020.7mb 70f 54f
5:24 9 14 mph 1020.6mb 70f 54f
5:18 8 11 mph 1020.5mb 70f 54f
5:12 7 10 mph 1020.5mb 70f 54f
5:06 6 8 mph 1020.6mb 70f 54f
5:00 6 8 mph 1020.5mb 70f 54f
4:54 6 9 mph 1020.5mb 70f 54f
4:48 6 9 mph 1020.5mb 70f 55f
4:42 5 7 mph 1020.3mb 70f 55f
4:36 5 9 mph 1020.3mb 70f 55f
4:30 7 10 mph 1020.2mb 70f 55f
4:24 7 10 mph 1020.3mb 70f 55f
4:18 8 14 mph 1020.2mb 70f 56f
4:12 7 13 mph 1020.2mb 70f 56f
4:06 8 11 mph 1020.1mb 70f 56f
4:00 8 13 mph 1020.1mb 70f 56f
3:54 10 14 mph 1020mb 70f 56f
3:48 10 13 mph 1020mb 70f 56f
3:42 9 14 mph 1019.9mb 70f 56f
3:36 10 14 mph 1019.8mb 70f 56f
3:30 10 14 mph 1019.8mb 70f 57f
3:24 10 16 mph 1019.7mb 70f 57f
3:18 13 16 mph 1019.6mb 70f 57f
3:12 11 14 mph 1019.6mb 70f 57f
3:06 10 15 mph 1019.6mb 70f 58f
3:00 11 16 mph 1019.6mb 70f 58f
2:54 10 16 mph 1019.6mb 70f 58f
2:48 9 14 mph 1019.6mb 70f 58f
2:42 8 13 mph 1019.6mb 70f 58f
2:24 6 8 mph 1019.5mb 71f 59f
2:18 6 7 mph 1019.5mb 71f 59f
2:00 5 8 mph 1019.3mb 71f 59f
1:54 6 8 mph 1019.3mb 71f 59f
1:48 6 8 mph 1019.2mb 71f 60f
1:42 6 8 mph 1019.2mb 71f 60f
1:36 6 7 mph 1019.2mb 71f 59f
1:30 6 7 mph 1019.1mb 71f 60f
1:24 6 7 mph 1019.1mb 71f 60f
1:18 5 7 mph 1019.1mb 71f 60f
1:12 6 7 mph 1019mb 71f 60f
1:06 7 8 mph 1019.1mb 71f 60f
1:00 6 9 mph 1019mb 71f 60f
12:54 6 8 mph 1019.1mb 71f 60f
12:48 8 10 mph 1019.1mb 71f 60f
12:42 7 11 mph 1019.1mb 71f 60f
12:36 8 9 mph 1019.2mb 71f 60f
12:30 8 11 mph - 71f 60f
12:24 7 9 mph - 71f 60f
12:18 7 8 mph - 71f 61f
12:12 7 9 mph 1019.1mb 71f 60f
12:06 7 9 mph 1019.1mb 71f 61f
12:00 9 11 mph 1019.1mb 71f 61f
sam. 09/13 11:42 8 13 mph 1019.2mb 71f 61f
11:36 8 10 mph 1019.2mb 71f 61f
11:30 8 11 mph 1019.3mb 71f 61f
11:24 8 11 mph 1019.3mb 71f 61f
11:18 8 9 mph 1019.3mb 71f 61f
11:12 7 10 mph 1019.2mb 71f 61f
11:06 7 9 mph 1019.2mb 71f 61f
11:00 7 8 mph 1019.2mb 71f 61f
10:36 6 7 mph 1019.1mb 71f 62f
10:30 5 7 mph 1019.1mb 71f 62f
10:12 3 5 mph 1018.9mb 71f 62f
10:06 2 3 mph 1018.9mb 71f 62f
9:48 3 5 mph 1019mb 71f 63f
9:42 3 7 mph 1019mb 71f 63f
9:36 5 7 mph 1019mb 71f 62f
9:30 7 8 mph 1018.9mb 71f 62f
9:24 5 9 mph 1018.8mb 71f 62f
9:12 3 6 mph 1018.8mb 71f 62f
9:06 5 6 mph 1018.8mb 71f 62f
9:00 5 6 mph 1018.8mb 71f 62f
8:54 3 6 mph 1018.9mb 71f 62f
8:48 3 5 mph 1018.9mb 71f 62f
8:42 3 5 mph 1018.9mb 71f 62f
8:36 2 5 mph 1019mb 71f 62f
8:30 2 5 mph 1019.1mb 71f 62f
8:24 3 5 mph 1019.1mb 71f 62f
8:18 5 6 mph 1019mb 71f 62f
8:12 6 8 mph 1019mb 71f 62f
8:06 7 8 mph 1018.9mb 71f 62f
8:00 6 8 mph 1019.1mb 71f 62f
7:54 6 8 mph 1019mb 71f 62f
7:48 6 7 mph 1019.1mb 71f 62f
7:42 7 8 mph 1019.1mb 71f 62f
7:36 7 9 mph 1019.1mb 71f 62f
7:30 7 8 mph 1019.1mb 71f 62f
7:24 6 9 mph 1019.1mb 71f 62f
7:18 6 7 mph 1019.3mb 71f 62f
7:12 6 7 mph 1019.4mb 71f 62f
7:06 6 7 mph 1019.5mb 71f 61f
7:00 5 6 mph 1019.5mb 71f 62f
6:54 3
mph
1019.6mb 71f 61f
6:48 3 5 mph 1019.6mb 71f 61f
6:42 5 6 mph 1019.7mb 71f 61f
6:36 5 8 mph 1019.7mb 71f 61f
6:30 7 8 mph 1020mb 71f 61f
6:24 7 10 mph 1020.1mb 71f 61f
6:18 7 9 mph 1020.2mb 71f 62f
6:06 6 9 mph 1020.3mb 71f 64f
5:54 7 9 mph 1020.8mb 71f 64f
5:48 3
mph
1020.8mb 71f 66f
5:42 3 6 mph 1020.8mb 71f 66f
5:36 2 3 mph 1020.7mb 71f 66f
5:30 2
mph
1020.5mb 71f 66f
5:24  -  mph 1020.5mb 71f 66f
5:18  -  1 mph 1020.3mb 71f 66f
5:12  -  1 mph 1020.2mb 71f 66f
5:06 1 3 mph 1020.1mb 71f 66f
5:00 5 8 mph 1019.8mb 71f 66f
4:54 7 8 mph 1019.6mb 71f 66f
4:42 8 10 mph 1019.4mb 71f 66f
4:30 8 9 mph 1019.2mb 71f 66f
4:24 8 9 mph 1019.3mb 71f 66f
4:18 8 10 mph 1019.4mb 71f 66f
4:06 8 10 mph 1019.4mb 71f 66f
4:00 9 11 mph 1019.4mb 71f 66f
3:54 8 10 mph 1019.5mb 71f 66f
3:48 8 11 mph 1019.5mb 71f 66f
3:42 9 10 mph 1019.5mb 71f 66f
3:36 9 11 mph 1019.5mb 71f 66f
3:30 8 9 mph 1019.6mb 71f 66f
3:24 8 9 mph 1019.6mb 71f 66f
3:18 10 13 mph 1019.6mb 71f 66f
3:12 9 15 mph 1019.7mb 71f 66f
3:06 11 14 mph 1019.7mb 71f 66f
3:00 13 15 mph 1019.7mb 71f 66f
2:54 13 17 mph 1019.8mb 71f 66f
2:48 9 14 mph 1019.8mb 71f 67f
2:42 10 16 mph 1019.9mb 71f 67f
2:36 14 17 mph 1019.9mb 71f 67f
2:30 17 20 mph 1019.8mb 71f 67f
2:24 14 17 mph 1020mb 71f 67f
2:18 15 18 mph 1020.2mb 71f 67f
2:12 16 20 mph 1020.3mb 71f 67f
2:06 14 18 mph 1020.3mb 71f 67f
2:00 15 18 mph 1020.4mb 71f 67f
1:54 16 20 mph 1020.5mb 71f 67f
1:48 14 16 mph 1020.9mb 71f 67f
1:42 14 17 mph 1021.3mb 71f 67f
1:30 11 13 mph 1021.3mb 71f 67f
1:24 9 13 mph 1021.4mb 71f 67f
1:18 11 13 mph 1021.4mb 71f 67f
1:12 9 14 mph 1021.6mb 71f 67f
1:06 7 10 mph 1021.5mb 71f 67f
1:00 9 13 mph 1021.6mb 71f 67f
12:54 10 11 mph 1021.7mb 71f 67f
12:48 8 10 mph 1021.8mb 71f 66f
12:42 9 14 mph 1022mb 71f 66f
12:36 10 13 mph 1022.1mb 71f 66f
12:30 9 11 mph 1022.2mb 71f 66f
12:24 10 11 mph 1022.2mb 71f 66f
12:18 8 10 mph 1022.4mb 71f 66f
12:12 7 9 mph 1022.3mb 71f 66f
12:06 10 14 mph 1022.2mb 71f 66f
12:00 11 15 mph 1022.1mb 71f 66f
11:54 11 14 mph 1022.2mb 71f 66f
11:48 13 16 mph 1022.2mb 71f 66f
11:42 14 18 mph 1022.2mb 71f 66f
11:36 17 21 mph 1022mb 71f 66f
11:30 16 20 mph 1021.9mb 71f 66f
11:24 17 20 mph 1021.9mb 71f 66f
11:12 16 20 mph 1021.9mb 71f 66f
11:06 16 18 mph 1022.1mb 71f 66f
11:00 15 18 mph 1022.3mb 71f 65f
10:54 11 15 mph 1022.4mb 71f 66f
10:48 14 15 mph 1022.3mb 71f 65f
10:42 13 16 mph 1022.3mb 71f 65f
10:36 11 15 mph 1022.5mb 71f 65f
10:30 11 15 mph 1022.6mb 71f 64f
10:24 11 16 mph 1022.6mb 71f 64f
10:18 11 15 mph 1022.6mb 71f 64f
10:12 13 15 mph 1022.6mb 71f 63f
10:06 14 16 mph 1022.6mb 71f 63f
10:00 14 16 mph 1022.6mb 71f 63f
9:54 13 15 mph 1022.7mb 71f 62f
9:48 13 16 mph 1022.9mb 71f 62f
9:42 13 15 mph 1022.9mb 71f 61f
9:36 13 16 mph 1022.9mb 71f 61f
9:30 14 17 mph 1022.9mb 71f 60f
9:24 14 16 mph 1023mb 71f 60f
9:18 14 16 mph 1022.9mb 71f 60f
9:12 15 17 mph 1022.9mb 71f 60f
9:06 15 17 mph 1023mb 71f 60f
9:00 15 17 mph 1023mb 71f 59f
8:54 14 17 mph 1023.1mb 71f 60f
8:48 15 18 mph 1023.2mb 71f 59f
8:42 15 18 mph 1023.3mb 71f 59f
8:36 16 18 mph 1023.2mb 71f 59f
8:30 17 22 mph 1023.1mb 71f 59f
8:24 17 21 mph 1023.2mb 71f 59f
8:18 17 21 mph 1023.5mb 71f 59f
8:12 16 21 mph 1023.4mb 71f 59f
8:06 18 21 mph 1023.5mb 71f 59f
8:00 17 20 mph 1023.5mb 71f 58f
7:54 16 20 mph 1023.6mb 71f 58f
7:48 15 20 mph 1023.6mb 71f 58f
7:42 13 16 mph 1023.7mb 71f 57f
7:36 11 14 mph 1023.9mb 71f 57f
7:30 10 15 mph 1023.8mb 71f 56f
7:24 10 15 mph 1023.8mb 71f 56f
7:18 10 13 mph 1023.8mb 71f 56f
7:12 9 14 mph 1023.8mb 71f 56f
7:06 9 20 mph 1023.8mb 71f 57f
7:00 16 21 mph 1023.8mb 71f 58f
6:54 17 21 mph 1023.8mb 71f 59f
6:48 17 21 mph 1023.9mb 71f 59f
6:42 17 20 mph 1023.9mb 71f 58f
6:36 17 22 mph 1023.8mb 71f 58f
6:30 16 18 mph 1023.6mb 71f 58f